• Join FlightAware (Why Join?)
  • Login
  • US Flag 
07:07PM EDT


 

Airport Tracker/Info


-or-


 

Live Flight TrackerFlight Track Log ✈ KAP329 ✈ 13-May-2013 ✈ KALB - KOGS

Flight Track Log - Related Links

Times and Time Zones

All times are in EDT time to prevent confusion due to time zone crossing. See the KAP329 flight status page for this flight to view local times or setup timezone preferences in your user account.

Time Position Orientation Groundspeed Altitude Reporting Facility
EDT Latitude Longitude Course Direction KTS MPH feet Rate Location/Type
06:41PM 42.7625 -73.8597 295° West 116 133 1,900  Level Boston Center
06:42PM 42.7936 -73.8831 331° Northwest 122 140 3,100 840 Climbing Boston Center
06:43PM 42.8203 -73.9119 322° Northwest 125 144 3,600 480 Climbing Boston Center
06:44PM 42.8511 -73.9325 334° Northwest 126 145 4,100 540 Climbing Boston Center
06:45PM 42.8800 -73.9558 329° Northwest 127 146 4,700 540 Climbing Boston Center
06:46PM 42.9131 -73.9794 332° Northwest 125 144 5,300 600 Climbing Boston Center
06:47PM 42.9481 -74.0086 329° Northwest 125 144 6,000 600 Climbing Boston Center
06:48PM 42.9769 -74.0350 326° Northwest 124 143 6,600 540 Climbing Boston Center
06:49PM 43.0039 -74.0556 331° Northwest 123 142 7,200 540 Climbing Boston Center
06:50PM 43.0325 -74.0819 326° Northwest 124 143 7,700 480 Climbing Boston Center
06:51PM 43.0594 -74.1025 331° Northwest 127 146 8,200 480 Climbing Boston Center
06:52PM 43.0922 -74.1289 330° Northwest 127 146 8,800 540 Climbing Boston Center
06:53PM 43.1192 -74.1494 331° Northwest 127 146 9,300 480 Climbing Boston Center
06:54PM 43.1542 -74.1789 328° Northwest 121 139 9,800 300 Climbing Boston Center
06:55PM 43.1828 -74.2025 329° Northwest 126 145 10,000 60 Climbing Boston Center
06:56PM 43.2242 -74.2353 330° Northwest 144 166 10,000  Level Boston Center
06:57PM 43.2550 -74.2589 331° Northwest 144 166 10,000  Level Boston Center
06:58PM 43.2942 -74.2914 329° Northwest 144 166 10,000  Level Boston Center
06:59PM 43.3250 -74.3181 328° Northwest 144 166 10,000  Level Boston Center
07:00PM 43.3619 -74.3506 327° Northwest 144 166 10,000  Level Boston Center
07:01PM 43.3969 -74.3775 331° Northwest 144 166 10,000  Level Boston Center
07:02PM 43.4297 -74.4072 327° Northwest 144 166 10,000  Level Boston Center
07:03PM 43.4647 -74.4339 331° Northwest 144 166 10,000  Level Boston Center
07:04PM 43.4975 -74.4608 329° Northwest 144 166 10,000  Level Boston Center
07:05PM 43.5303 -74.4933 324° Northwest 144 166 10,100  Climbing Boston Center
07:06PM 43.5631 -74.5231 327° Northwest 144 166 10,100  Level Boston Center
07:07PM 43.6000 -74.5503 332° Northwest 144 166 10,100  Level Boston Center
07:08PM 43.6331 -74.5772 329° Northwest 144 166 10,100  Level Boston Center
07:09PM 43.6700 -74.6044 332° Northwest 144 166 10,100  Level Boston Center
07:10PM 43.7050 -74.6314 331° Northwest 144 166 10,100  Level Boston Center
07:11PM 43.7419 -74.6558 334° Northwest 144 166 10,100  Level Boston Center
07:12PM 43.7769 -74.6831 331° Northwest 144 166 10,100  Level Boston Center
07:13PM 43.8139 -74.7103 332° Northwest 139 160 10,100  Level Boston Center
07:14PM 43.8508 -74.7347 334° Northwest 139 160 10,100  Level Boston Center
07:15PM 43.8856 -74.7678 326° Northwest 139 160 10,100  Level Boston Center
07:16PM 43.9183 -74.7950 329° Northwest 139 160 10,100 -60 Level Boston Center
07:17PM 43.9553 -74.8253 329° Northwest 139 160 10,000 -300 Descending Boston Center
07:18PM 43.9900 -74.8611 323° Northwest 145 167 9,500 -480 Descending Boston Center
07:19PM 44.0267 -74.8944 327° Northwest 155 178 9,100 -480 Descending Boston Center
07:20PM 44.0636 -74.9278 327° Northwest 155 178 8,600 -480 Descending Boston Center
07:21PM 44.1044 -74.9614 329° Northwest 161 185 8,200 -420 Descending Boston Center
07:22PM 44.1392 -74.9917 328° Northwest 161 185 7,800 -420 Descending Boston Center
07:23PM 44.1781 -75.0222 331° Northwest 167 192 7,400 -420 Descending Boston Center
07:24PM 44.2169 -75.0589 326° Northwest 162 186 7,000 -480 Descending Boston Center
07:25PM 44.2558 -75.0894 331° Northwest 162 186 6,500 -540 Descending Boston Center
07:26PM 44.2969 -75.1175 334° Northwest 162 186 6,000 -600 Descending Boston Center
07:27PM 44.3358 -75.1483 330° Northwest 162 186 5,400 -600 Descending Boston Center
07:28PM 44.3744 -75.1819 328° Northwest 162 186 4,900 -540 Descending Boston Center